sensor_id;sensor_type;location;lat;lon;timestamp;P1;durP1;ratioP1;P2;durP2;ratioP2
76733;SDS011;65660;53.288;14.666;2024-03-02T00:04:08;111.57;;;54.23;;
76733;SDS011;65660;53.288;14.666;2024-03-02T00:09:09;107.80;;;54.00;;
76733;SDS011;65660;53.288;14.666;2024-03-02T00:14:09;106.33;;;52.50;;
76733;SDS011;65660;53.288;14.666;2024-03-02T00:19:10;107.80;;;52.93;;
76733;SDS011;65660;53.288;14.666;2024-03-02T00:29:34;108.67;;;52.80;;
76733;SDS011;65660;53.288;14.666;2024-03-02T00:34:35;101.70;;;52.47;;
76733;SDS011;65660;53.288;14.666;2024-03-02T00:39:35;117.33;;;54.97;;
76733;SDS011;65660;53.288;14.666;2024-03-02T00:44:36;107.57;;;53.10;;
76733;SDS011;65660;53.288;14.666;2024-03-02T00:49:36;100.23;;;51.37;;
76733;SDS011;65660;53.288;14.666;2024-03-02T00:54:37;87.77;;;46.40;;
76733;SDS011;65660;53.288;14.666;2024-03-02T00:59:37;98.67;;;48.67;;
76733;SDS011;65660;53.288;14.666;2024-03-02T01:04:38;96.23;;;48.60;;
76733;SDS011;65660;53.288;14.666;2024-03-02T01:09:38;79.47;;;43.93;;
76733;SDS011;65660;53.288;14.666;2024-03-02T01:14:39;88.33;;;47.00;;
76733;SDS011;65660;53.288;14.666;2024-03-02T01:19:41;93.70;;;49.20;;
76733;SDS011;65660;53.288;14.666;2024-03-02T01:24:42;92.37;;;46.77;;
76733;SDS011;65660;53.288;14.666;2024-03-02T01:29:42;72.77;;;39.30;;
76733;SDS011;65660;53.288;14.666;2024-03-02T01:34:43;69.03;;;38.57;;
76733;SDS011;65660;53.288;14.666;2024-03-02T01:39:43;82.03;;;43.77;;
76733;SDS011;65660;53.288;14.666;2024-03-02T01:44:44;88.57;;;45.27;;
76733;SDS011;65660;53.288;14.666;2024-03-02T01:49:44;82.87;;;43.47;;
76733;SDS011;65660;53.288;14.666;2024-03-02T01:54:45;81.53;;;41.70;;
76733;SDS011;65660;53.288;14.666;2024-03-02T01:59:46;88.40;;;43.47;;
76733;SDS011;65660;53.288;14.666;2024-03-02T02:04:46;77.43;;;41.27;;
76733;SDS011;65660;53.288;14.666;2024-03-02T02:09:47;63.30;;;35.10;;
76733;SDS011;65660;53.288;14.666;2024-03-02T02:14:48;65.87;;;35.63;;
76733;SDS011;65660;53.288;14.666;2024-03-02T02:19:49;63.23;;;34.30;;
76733;SDS011;65660;53.288;14.666;2024-03-02T02:24:49;58.53;;;32.13;;
76733;SDS011;65660;53.288;14.666;2024-03-02T02:29:50;58.10;;;31.83;;
76733;SDS011;65660;53.288;14.666;2024-03-02T02:34:53;55.60;;;30.00;;
76733;SDS011;65660;53.288;14.666;2024-03-02T02:39:54;60.17;;;32.00;;
76733;SDS011;65660;53.288;14.666;2024-03-02T02:44:54;60.20;;;33.40;;
76733;SDS011;65660;53.288;14.666;2024-03-02T02:49:55;66.17;;;35.07;;
76733;SDS011;65660;53.288;14.666;2024-03-02T02:54:55;64.87;;;33.53;;
76733;SDS011;65660;53.288;14.666;2024-03-02T02:59:56;63.57;;;32.93;;
76733;SDS011;65660;53.288;14.666;2024-03-02T03:04:56;58.40;;;31.43;;
76733;SDS011;65660;53.288;14.666;2024-03-02T03:09:57;61.67;;;32.93;;
76733;SDS011;65660;53.288;14.666;2024-03-02T03:14:57;67.57;;;35.67;;
76733;SDS011;65660;53.288;14.666;2024-03-02T03:19:58;64.53;;;33.83;;
76733;SDS011;65660;53.288;14.666;2024-03-02T03:24:59;59.37;;;32.53;;
76733;SDS011;65660;53.288;14.666;2024-03-02T03:29:59;76.93;;;38.67;;
76733;SDS011;65660;53.288;14.666;2024-03-02T03:35:00;64.90;;;35.40;;
76733;SDS011;65660;53.288;14.666;2024-03-02T03:40:01;70.03;;;36.40;;
76733;SDS011;65660;53.288;14.666;2024-03-02T03:45:03;60.77;;;33.70;;
76733;SDS011;65660;53.288;14.666;2024-03-02T03:50:04;76.13;;;37.50;;
76733;SDS011;65660;53.288;14.666;2024-03-02T03:55:05;72.20;;;37.00;;
76733;SDS011;65660;53.288;14.666;2024-03-02T04:00:06;65.47;;;35.53;;
76733;SDS011;65660;53.288;14.666;2024-03-02T04:05:08;68.83;;;36.87;;
76733;SDS011;65660;53.288;14.666;2024-03-02T04:10:09;75.13;;;38.77;;
76733;SDS011;65660;53.288;14.666;2024-03-02T04:15:10;70.60;;;36.73;;
76733;SDS011;65660;53.288;14.666;2024-03-02T04:20:10;68.73;;;38.30;;
76733;SDS011;65660;53.288;14.666;2024-03-02T04:25:11;76.70;;;38.37;;
76733;SDS011;65660;53.288;14.666;2024-03-02T04:30:11;66.50;;;35.23;;
76733;SDS011;65660;53.288;14.666;2024-03-02T04:35:12;71.97;;;38.70;;
76733;SDS011;65660;53.288;14.666;2024-03-02T04:40:13;77.77;;;39.73;;
76733;SDS011;65660;53.288;14.666;2024-03-02T04:45:13;60.50;;;33.90;;
76733;SDS011;65660;53.288;14.666;2024-03-02T04:50:14;74.20;;;40.30;;
76733;SDS011;65660;53.288;14.666;2024-03-02T04:55:14;65.13;;;36.27;;
76733;SDS011;65660;53.288;14.666;2024-03-02T05:00:16;74.67;;;40.57;;
76733;SDS011;65660;53.288;14.666;2024-03-02T05:05:17;81.47;;;41.90;;
76733;SDS011;65660;53.288;14.666;2024-03-02T05:10:17;71.53;;;39.37;;
76733;SDS011;65660;53.288;14.666;2024-03-02T05:15:18;70.47;;;38.30;;
76733;SDS011;65660;53.288;14.666;2024-03-02T05:20:18;64.90;;;37.03;;
76733;SDS011;65660;53.288;14.666;2024-03-02T05:25:19;71.87;;;39.37;;
76733;SDS011;65660;53.288;14.666;2024-03-02T05:30:19;74.03;;;40.73;;
76733;SDS011;65660;53.288;14.666;2024-03-02T05:35:20;88.83;;;45.50;;
76733;SDS011;65660;53.288;14.666;2024-03-02T05:40:20;75.73;;;40.17;;
76733;SDS011;65660;53.288;14.666;2024-03-02T05:45:21;79.33;;;44.00;;
76733;SDS011;65660;53.288;14.666;2024-03-02T05:50:21;84.50;;;44.10;;
76733;SDS011;65660;53.288;14.666;2024-03-02T05:55:22;91.27;;;47.87;;
76733;SDS011;65660;53.288;14.666;2024-03-02T06:00:22;92.30;;;47.80;;
76733;SDS011;65660;53.288;14.666;2024-03-02T06:05:23;93.67;;;48.17;;
76733;SDS011;65660;53.288;14.666;2024-03-02T06:10:24;84.87;;;44.80;;
76733;SDS011;65660;53.288;14.666;2024-03-02T06:15:24;81.70;;;43.23;;
76733;SDS011;65660;53.288;14.666;2024-03-02T06:20:25;99.67;;;49.63;;
76733;SDS011;65660;53.288;14.666;2024-03-02T06:25:25;102.47;;;49.57;;
76733;SDS011;65660;53.288;14.666;2024-03-02T06:30:26;87.07;;;46.37;;
76733;SDS011;65660;53.288;14.666;2024-03-02T06:35:26;102.97;;;50.60;;
76733;SDS011;65660;53.288;14.666;2024-03-02T06:40:27;89.37;;;47.70;;
76733;SDS011;65660;53.288;14.666;2024-03-02T06:45:27;92.50;;;49.03;;
76733;SDS011;65660;53.288;14.666;2024-03-02T06:50:28;104.93;;;51.13;;
76733;SDS011;65660;53.288;14.666;2024-03-02T06:55:28;117.50;;;61.87;;
76733;SDS011;65660;53.288;14.666;2024-03-02T07:00:29;99.97;;;50.50;;
76733;SDS011;65660;53.288;14.666;2024-03-02T07:05:29;105.73;;;52.10;;
76733;SDS011;65660;53.288;14.666;2024-03-02T07:10:30;113.40;;;56.23;;
76733;SDS011;65660;53.288;14.666;2024-03-02T07:15:30;110.60;;;54.10;;
76733;SDS011;65660;53.288;14.666;2024-03-02T07:20:31;102.90;;;52.73;;
76733;SDS011;65660;53.288;14.666;2024-03-02T07:25:31;114.20;;;54.53;;
76733;SDS011;65660;53.288;14.666;2024-03-02T07:30:32;110.13;;;53.87;;
76733;SDS011;65660;53.288;14.666;2024-03-02T07:35:32;105.47;;;54.30;;
76733;SDS011;65660;53.288;14.666;2024-03-02T07:40:33;94.27;;;48.70;;
76733;SDS011;65660;53.288;14.666;2024-03-02T07:45:33;112.10;;;55.43;;
76733;SDS011;65660;53.288;14.666;2024-03-02T07:50:34;106.83;;;51.87;;
76733;SDS011;65660;53.288;14.666;2024-03-02T07:55:34;110.17;;;55.60;;
76733;SDS011;65660;53.288;14.666;2024-03-02T08:00:35;109.87;;;52.97;;
76733;SDS011;65660;53.288;14.666;2024-03-02T08:05:35;105.80;;;53.23;;
76733;SDS011;65660;53.288;14.666;2024-03-02T08:10:36;103.93;;;51.30;;
76733;SDS011;65660;53.288;14.666;2024-03-02T08:15:36;107.20;;;52.50;;
76733;SDS011;65660;53.288;14.666;2024-03-02T08:20:36;118.10;;;55.37;;
76733;SDS011;65660;53.288;14.666;2024-03-02T08:25:37;104.87;;;53.07;;
76733;SDS011;65660;53.288;14.666;2024-03-02T08:30:40;135.90;;;58.87;;
76733;SDS011;65660;53.288;14.666;2024-03-02T08:35:40;173.67;;;65.60;;
76733;SDS011;65660;53.288;14.666;2024-03-02T08:40:41;109.63;;;54.13;;
76733;SDS011;65660;53.288;14.666;2024-03-02T08:45:41;118.53;;;54.03;;
76733;SDS011;65660;53.288;14.666;2024-03-02T08:50:42;159.70;;;64.00;;
76733;SDS011;65660;53.288;14.666;2024-03-02T08:55:43;136.77;;;60.10;;
76733;SDS011;65660;53.288;14.666;2024-03-02T09:00:43;128.50;;;57.83;;
76733;SDS011;65660;53.288;14.666;2024-03-02T09:05:44;94.53;;;48.30;;
76733;SDS011;65660;53.288;14.666;2024-03-02T09:10:44;100.67;;;52.13;;
76733;SDS011;65660;53.288;14.666;2024-03-02T09:15:45;97.10;;;48.67;;
76733;SDS011;65660;53.288;14.666;2024-03-02T09:20:45;139.77;;;58.23;;
76733;SDS011;65660;53.288;14.666;2024-03-02T09:25:46;109.77;;;51.07;;
76733;SDS011;65660;53.288;14.666;2024-03-02T09:30:46;118.00;;;53.40;;
76733;SDS011;65660;53.288;14.666;2024-03-02T09:35:47;103.40;;;52.97;;
76733;SDS011;65660;53.288;14.666;2024-03-02T09:40:49;117.57;;;54.37;;
76733;SDS011;65660;53.288;14.666;2024-03-02T09:45:50;98.60;;;49.30;;
76733;SDS011;65660;53.288;14.666;2024-03-02T09:50:51;114.97;;;53.93;;
76733;SDS011;65660;53.288;14.666;2024-03-02T09:55:51;148.80;;;61.07;;
76733;SDS011;65660;53.288;14.666;2024-03-02T10:00:52;101.90;;;50.17;;
76733;SDS011;65660;53.288;14.666;2024-03-02T10:05:52;108.27;;;52.03;;
76733;SDS011;65660;53.288;14.666;2024-03-02T10:10:53;105.37;;;51.80;;
76733;SDS011;65660;53.288;14.666;2024-03-02T10:15:53;85.47;;;44.00;;
76733;SDS011;65660;53.288;14.666;2024-03-02T10:20:54;83.93;;;42.47;;
76733;SDS011;65660;53.288;14.666;2024-03-02T10:25:54;70.47;;;37.90;;
76733;SDS011;65660;53.288;14.666;2024-03-02T10:30:55;78.13;;;37.83;;
76733;SDS011;65660;53.288;14.666;2024-03-02T10:35:56;77.80;;;39.17;;
76733;SDS011;65660;53.288;14.666;2024-03-02T10:40:57;77.77;;;39.23;;
76733;SDS011;65660;53.288;14.666;2024-03-02T10:45:58;66.87;;;34.20;;
76733;SDS011;65660;53.288;14.666;2024-03-02T10:50:58;60.20;;;32.30;;
76733;SDS011;65660;53.288;14.666;2024-03-02T10:55:59;64.20;;;34.40;;
76733;SDS011;65660;53.288;14.666;2024-03-02T11:01:01;69.03;;;35.33;;
76733;SDS011;65660;53.288;14.666;2024-03-02T11:06:03;72.80;;;35.30;;
76733;SDS011;65660;53.288;14.666;2024-03-02T11:11:15;68.90;;;35.53;;
76733;SDS011;65660;53.288;14.666;2024-03-02T11:16:26;61.77;;;33.23;;
76733;SDS011;65660;53.288;14.666;2024-03-02T11:21:34;70.77;;;35.13;;
76733;SDS011;65660;53.288;14.666;2024-03-02T11:26:38;64.77;;;34.50;;
76733;SDS011;65660;53.288;14.666;2024-03-02T11:32:39;67.80;;;35.27;;
76733;SDS011;65660;53.288;14.666;2024-03-02T11:37:19;65.17;;;33.80;;
76733;SDS011;65660;53.288;14.666;2024-03-02T11:42:20;59.80;;;31.93;;
76733;SDS011;65660;53.288;14.666;2024-03-02T11:47:20;64.27;;;34.87;;
76733;SDS011;65660;53.288;14.666;2024-03-02T11:52:21;59.87;;;32.83;;
76733;SDS011;65660;53.288;14.666;2024-03-02T11:57:22;56.47;;;32.00;;
76733;SDS011;65660;53.288;14.666;2024-03-02T12:02:23;62.83;;;33.33;;
76733;SDS011;65660;53.288;14.666;2024-03-02T12:07:23;65.70;;;35.30;;
76733;SDS011;65660;53.288;14.666;2024-03-02T12:12:24;71.63;;;35.63;;
76733;SDS011;65660;53.288;14.666;2024-03-02T12:17:24;69.57;;;35.00;;
76733;SDS011;65660;53.288;14.666;2024-03-02T12:22:25;58.65;;;32.60;;
76733;SDS011;65660;53.288;14.666;2024-03-02T12:27:25;53.80;;;28.70;;
76733;SDS011;65660;53.288;14.666;2024-03-02T12:32:26;51.40;;;29.35;;
76733;SDS011;65660;53.288;14.666;2024-03-02T12:37:26;46.25;;;26.83;;
76733;SDS011;65660;53.288;14.666;2024-03-02T12:42:27;56.30;;;30.50;;
76733;SDS011;65660;53.288;14.666;2024-03-02T12:47:27;54.08;;;30.08;;
76733;SDS011;65660;53.288;14.666;2024-03-02T12:52:28;58.85;;;31.23;;
76733;SDS011;65660;53.288;14.666;2024-03-02T12:57:29;57.30;;;31.58;;
76733;SDS011;65660;53.288;14.666;2024-03-02T13:02:30;55.92;;;30.15;;
76733;SDS011;65660;53.288;14.666;2024-03-02T13:07:31;52.05;;;29.02;;
76733;SDS011;65660;53.288;14.666;2024-03-02T13:12:31;56.30;;;30.42;;
76733;SDS011;65660;53.288;14.666;2024-03-02T13:17:34;53.72;;;29.75;;
76733;SDS011;65660;53.288;14.666;2024-03-02T13:22:35;48.08;;;27.23;;
76733;SDS011;65660;53.288;14.666;2024-03-02T13:27:36;48.92;;;27.13;;
76733;SDS011;65660;53.288;14.666;2024-03-02T13:32:37;45.38;;;26.83;;
76733;SDS011;65660;53.288;14.666;2024-03-02T13:37:37;46.13;;;26.92;;
76733;SDS011;65660;53.288;14.666;2024-03-02T13:42:38;47.40;;;28.10;;
76733;SDS011;65660;53.288;14.666;2024-03-02T13:47:41;47.05;;;26.55;;
76733;SDS011;65660;53.288;14.666;2024-03-02T13:52:42;48.25;;;27.88;;
76733;SDS011;65660;53.288;14.666;2024-03-02T13:57:42;46.67;;;27.35;;
76733;SDS011;65660;53.288;14.666;2024-03-02T14:02:43;46.63;;;27.17;;
76733;SDS011;65660;53.288;14.666;2024-03-02T14:07:44;49.92;;;29.00;;
76733;SDS011;65660;53.288;14.666;2024-03-02T14:12:44;46.15;;;27.05;;
76733;SDS011;65660;53.288;14.666;2024-03-02T14:17:45;47.47;;;27.40;;
76733;SDS011;65660;53.288;14.666;2024-03-02T14:22:45;48.88;;;28.17;;
76733;SDS011;65660;53.288;14.666;2024-03-02T14:27:46;47.17;;;27.30;;
76733;SDS011;65660;53.288;14.666;2024-03-02T14:32:46;54.72;;;30.35;;
76733;SDS011;65660;53.288;14.666;2024-03-02T14:37:47;48.45;;;30.00;;
76733;SDS011;65660;53.288;14.666;2024-03-02T14:42:47;46.85;;;28.27;;
76733;SDS011;65660;53.288;14.666;2024-03-02T14:47:48;49.63;;;28.98;;
76733;SDS011;65660;53.288;14.666;2024-03-02T14:52:48;49.50;;;28.00;;
76733;SDS011;65660;53.288;14.666;2024-03-02T14:57:49;46.88;;;28.88;;
76733;SDS011;65660;53.288;14.666;2024-03-02T15:02:49;49.78;;;28.48;;
76733;SDS011;65660;53.288;14.666;2024-03-02T15:07:50;49.05;;;29.10;;
76733;SDS011;65660;53.288;14.666;2024-03-02T15:12:51;44.67;;;26.98;;
76733;SDS011;65660;53.288;14.666;2024-03-02T15:17:51;48.55;;;28.27;;
76733;SDS011;65660;53.288;14.666;2024-03-02T15:22:52;49.78;;;27.40;;
76733;SDS011;65660;53.288;14.666;2024-03-02T15:27:52;48.53;;;28.33;;
76733;SDS011;65660;53.288;14.666;2024-03-02T15:32:53;55.50;;;31.63;;
76733;SDS011;65660;53.288;14.666;2024-03-02T15:37:53;62.28;;;33.28;;
76733;SDS011;65660;53.288;14.666;2024-03-02T15:42:54;58.20;;;33.47;;
76733;SDS011;65660;53.288;14.666;2024-03-02T15:47:54;61.58;;;33.83;;
76733;SDS011;65660;53.288;14.666;2024-03-02T15:52:55;63.95;;;36.45;;
76733;SDS011;65660;53.288;14.666;2024-03-02T15:57:55;62.05;;;34.25;;
76733;SDS011;65660;53.288;14.666;2024-03-02T16:02:56;68.47;;;37.75;;
76733;SDS011;65660;53.288;14.666;2024-03-02T16:07:56;61.35;;;35.17;;
76733;SDS011;65660;53.288;14.666;2024-03-02T16:12:57;74.82;;;40.50;;
76733;SDS011;65660;53.288;14.666;2024-03-02T16:17:57;67.55;;;37.33;;
76733;SDS011;65660;53.288;14.666;2024-03-02T16:22:58;65.03;;;37.33;;
76733;SDS011;65660;53.288;14.666;2024-03-02T16:27:58;65.43;;;37.88;;
76733;SDS011;65660;53.288;14.666;2024-03-02T16:32:59;65.18;;;37.95;;
76733;SDS011;65660;53.288;14.666;2024-03-02T16:37:59;63.00;;;35.33;;
76733;SDS011;65660;53.288;14.666;2024-03-02T16:43:00;69.00;;;37.35;;
76733;SDS011;65660;53.288;14.666;2024-03-02T16:48:00;63.65;;;35.20;;
76733;SDS011;65660;53.288;14.666;2024-03-02T16:53:01;64.13;;;36.30;;
76733;SDS011;65660;53.288;14.666;2024-03-02T16:58:01;66.88;;;36.95;;
76733;SDS011;65660;53.288;14.666;2024-03-02T17:03:02;71.38;;;38.08;;
76733;SDS011;65660;53.288;14.666;2024-03-02T17:08:03;70.45;;;38.15;;
76733;SDS011;65660;53.288;14.666;2024-03-02T17:13:03;68.57;;;37.83;;
76733;SDS011;65660;53.288;14.666;2024-03-02T17:18:04;66.40;;;38.30;;
76733;SDS011;65660;53.288;14.666;2024-03-02T17:23:05;65.23;;;37.37;;
76733;SDS011;65660;53.288;14.666;2024-03-02T17:28:24;76.67;;;40.33;;
76733;SDS011;65660;53.288;14.666;2024-03-02T17:33:25;69.80;;;39.47;;
76733;SDS011;65660;53.288;14.666;2024-03-02T17:38:26;74.40;;;40.93;;
76733;SDS011;65660;53.288;14.666;2024-03-02T17:43:27;67.83;;;38.87;;
76733;SDS011;65660;53.288;14.666;2024-03-02T17:48:27;70.70;;;40.23;;
76733;SDS011;65660;53.288;14.666;2024-03-02T17:53:29;75.00;;;42.33;;
76733;SDS011;65660;53.288;14.666;2024-03-02T17:58:29;69.23;;;39.43;;
76733;SDS011;65660;53.288;14.666;2024-03-02T18:03:30;71.67;;;40.70;;
76733;SDS011;65660;53.288;14.666;2024-03-02T18:08:30;72.97;;;40.47;;
76733;SDS011;65660;53.288;14.666;2024-03-02T18:13:31;76.63;;;42.80;;
76733;SDS011;65660;53.288;14.666;2024-03-02T18:18:31;72.73;;;41.63;;
76733;SDS011;65660;53.288;14.666;2024-03-02T18:23:32;71.10;;;40.23;;
76733;SDS011;65660;53.288;14.666;2024-03-02T18:28:32;72.97;;;39.50;;
76733;SDS011;65660;53.288;14.666;2024-03-02T18:33:32;56.50;;;34.43;;
76733;SDS011;65660;53.288;14.666;2024-03-02T18:38:33;71.93;;;38.90;;
76733;SDS011;65660;53.288;14.666;2024-03-02T18:43:33;71.67;;;39.53;;
76733;SDS011;65660;53.288;14.666;2024-03-02T18:48:34;65.33;;;37.33;;
76733;SDS011;65660;53.288;14.666;2024-03-02T18:53:35;67.70;;;37.30;;
76733;SDS011;65660;53.288;14.666;2024-03-02T18:58:36;62.43;;;36.10;;
76733;SDS011;65660;53.288;14.666;2024-03-02T19:03:36;68.97;;;38.47;;
76733;SDS011;65660;53.288;14.666;2024-03-02T19:08:37;68.17;;;37.90;;
76733;SDS011;65660;53.288;14.666;2024-03-02T19:13:37;64.67;;;35.53;;
76733;SDS011;65660;53.288;14.666;2024-03-02T19:18:41;60.20;;;32.90;;
76733;SDS011;65660;53.288;14.666;2024-03-02T19:23:42;67.23;;;36.90;;
76733;SDS011;65660;53.288;14.666;2024-03-02T19:28:43;66.30;;;36.67;;
76733;SDS011;65660;53.288;14.666;2024-03-02T19:33:43;66.53;;;36.90;;
76733;SDS011;65660;53.288;14.666;2024-03-02T19:38:44;66.13;;;36.63;;
76733;SDS011;65660;53.288;14.666;2024-03-02T19:43:45;64.00;;;36.50;;
76733;SDS011;65660;53.288;14.666;2024-03-02T19:48:45;63.67;;;34.70;;
76733;SDS011;65660;53.288;14.666;2024-03-02T19:53:46;58.83;;;32.27;;
76733;SDS011;65660;53.288;14.666;2024-03-02T19:58:46;62.63;;;34.70;;
76733;SDS011;65660;53.288;14.666;2024-03-02T20:03:47;70.23;;;39.03;;
76733;SDS011;65660;53.288;14.666;2024-03-02T20:08:47;60.87;;;34.00;;
76733;SDS011;65660;53.288;14.666;2024-03-02T20:13:48;68.70;;;37.90;;
76733;SDS011;65660;53.288;14.666;2024-03-02T20:18:48;57.60;;;34.90;;
76733;SDS011;65660;53.288;14.666;2024-03-02T20:23:49;67.53;;;37.30;;
76733;SDS011;65660;53.288;14.666;2024-03-02T20:28:49;62.50;;;35.33;;
76733;SDS011;65660;53.288;14.666;2024-03-02T20:33:50;58.67;;;34.57;;
76733;SDS011;65660;53.288;14.666;2024-03-02T20:38:50;64.13;;;35.40;;
76733;SDS011;65660;53.288;14.666;2024-03-02T20:43:51;59.40;;;35.20;;
76733;SDS011;65660;53.288;14.666;2024-03-02T20:48:51;61.70;;;36.07;;
76733;SDS011;65660;53.288;14.666;2024-03-02T20:53:52;66.03;;;38.00;;
76733;SDS011;65660;53.288;14.666;2024-03-02T20:58:52;60.10;;;36.53;;
76733;SDS011;65660;53.288;14.666;2024-03-02T21:03:53;64.77;;;37.27;;
76733;SDS011;65660;53.288;14.666;2024-03-02T21:08:53;54.23;;;32.50;;
76733;SDS011;65660;53.288;14.666;2024-03-02T21:13:54;57.50;;;34.63;;
76733;SDS011;65660;53.288;14.666;2024-03-02T21:18:54;58.13;;;34.20;;
76733;SDS011;65660;53.288;14.666;2024-03-02T21:23:55;61.63;;;33.57;;
76733;SDS011;65660;53.288;14.666;2024-03-02T21:28:55;52.20;;;30.47;;
76733;SDS011;65660;53.288;14.666;2024-03-02T21:33:56;56.17;;;33.03;;
76733;SDS011;65660;53.288;14.666;2024-03-02T21:38:56;60.17;;;33.70;;
76733;SDS011;65660;53.288;14.666;2024-03-02T21:43:57;60.13;;;34.30;;
76733;SDS011;65660;53.288;14.666;2024-03-02T21:48:58;62.63;;;34.20;;
76733;SDS011;65660;53.288;14.666;2024-03-02T21:53:59;60.87;;;34.33;;
76733;SDS011;65660;53.288;14.666;2024-03-02T21:58:59;55.87;;;31.93;;
76733;SDS011;65660;53.288;14.666;2024-03-02T22:04:00;56.53;;;34.60;;
76733;SDS011;65660;53.288;14.666;2024-03-02T22:09:00;57.33;;;32.57;;
76733;SDS011;65660;53.288;14.666;2024-03-02T22:14:01;60.70;;;33.57;;
76733;SDS011;65660;53.288;14.666;2024-03-02T22:19:01;54.70;;;32.80;;
76733;SDS011;65660;53.288;14.666;2024-03-02T22:24:02;56.23;;;32.57;;
76733;SDS011;65660;53.288;14.666;2024-03-02T22:29:02;55.93;;;32.47;;
76733;SDS011;65660;53.288;14.666;2024-03-02T22:34:03;55.93;;;33.03;;
76733;SDS011;65660;53.288;14.666;2024-03-02T22:39:03;62.20;;;33.73;;
76733;SDS011;65660;53.288;14.666;2024-03-02T22:44:04;58.00;;;32.80;;
76733;SDS011;65660;53.288;14.666;2024-03-02T22:49:04;56.33;;;32.63;;
76733;SDS011;65660;53.288;14.666;2024-03-02T22:54:05;61.33;;;35.00;;
76733;SDS011;65660;53.288;14.666;2024-03-02T22:59:05;56.70;;;32.17;;
76733;SDS011;65660;53.288;14.666;2024-03-02T23:04:06;64.40;;;34.93;;
76733;SDS011;65660;53.288;14.666;2024-03-02T23:09:07;64.73;;;36.23;;
76733;SDS011;65660;53.288;14.666;2024-03-02T23:14:07;61.03;;;34.03;;
76733;SDS011;65660;53.288;14.666;2024-03-02T23:19:07;65.67;;;34.97;;
76733;SDS011;65660;53.288;14.666;2024-03-02T23:24:08;67.93;;;36.97;;
76733;SDS011;65660;53.288;14.666;2024-03-02T23:29:08;72.43;;;36.77;;
76733;SDS011;65660;53.288;14.666;2024-03-02T23:34:09;72.73;;;36.90;;
76733;SDS011;65660;53.288;14.666;2024-03-02T23:39:10;75.33;;;38.60;;
76733;SDS011;65660;53.288;14.666;2024-03-02T23:44:10;68.40;;;36.47;;
76733;SDS011;65660;53.288;14.666;2024-03-02T23:49:11;75.43;;;39.07;;
76733;SDS011;65660;53.288;14.666;2024-03-02T23:54:11;70.17;;;36.63;;
76733;SDS011;65660;53.288;14.666;2024-03-02T23:59:12;71.13;;;37.47;;
